Weather observations for the past three days for
Hays, Hays Regional Airport
Imperial (Metric)
Date Time (cdt) Wind (mph) Vis. (mi.) Weather Sky Cond. Temperature (ºF) Relative Humidity Wind Chill (°F) Heat Index (°F) Pressure Precipitation (in)
Air Dwpt 6 hour altimeter (in) sea level (mb) 1 hr 3 hr 6 hr
Max. Min.
06 01:56 NW 7 10.00 Light Rain BKN030 BKN045 OVC055 43 41 93% 39 30.04 1018.0 0.02
06 00:56 W 6 10.00 Light Rain BKN040 OVC048 43 42.1 46.9 43 97% 40 30.04 1018.0 0.01 0.08
05 23:56 NW 3 10.00 Light Rain OVC075 44.1 41 89% 30.03 1017.3
05 22:56 Calm 10.00 Overcast OVC070 44.1 39.9 85% 30.01 1016.7 0.01
05 21:56 Calm 10.00 Overcast OVC070 43 39.9 89% 30 1016.4 0.06
05 20:56 Calm 9.00 Light Rain FEW028 BKN034 OVC048 43 39.9 89% 29.99 1016.2 0.06
05 19:56 N 7 10.00 Light Rain BKN047 OVC060 45 39.9 83% 42 29.98 1015.6
05 18:56 NE 7 10.00 Overcast OVC070 46.9 36 48.9 46.9 66% 44 29.95 1014.7
05 17:56 NE 12 10.00 Light Rain SCT035 BKN046 OVC070 46.9 37.9 71% 42 29.95 1014.4
05 16:56 NE 10 10.00 Overcast OVC065 48.9 33.1 55% 45 29.95 1014.4
05 15:56 NE 13 10.00 Overcast OVC070 48.9 35.1 59% 44 29.94 1014.1
05 14:56 NE 14 10.00 Overcast OVC065 48 35.1 61% 43 29.96 1014.9
05 13:56 NE 10 10.00 Overcast OVC060 48 35.1 61% 44 29.97 1015.0
05 12:56 NE 12 10.00 Overcast SCT028 OVC065 48 37 48.9 46.9 66% 44 29.98 1015.2
05 11:56 NE 13 10.00 Overcast FEW028 OVC065 48.9 37 64% 44 29.97 1014.8
05 10:56 NE 14 10.00 Overcast OVC060 48.9 37 64% 44 29.96 1014.3
05 09:56 NE 13 10.00 Overcast OVC055 48 37.9 68% 43 29.95 1014.1
05 08:56 NE 15 10.00 Overcast OVC055 46.9 37.9 71% 41 29.94 1013.3
05 07:56 NE 14 10.00 Overcast FEW060 OVC070 48 37 66% 43 29.89 1011.6
05 06:56 NE 16 10.00 Overcast BKN070 OVC090 48 36 55 48 63% 42 29.85 1010.1
05 05:56 NE 17 10.00 Overcast BKN048 OVC075 48.9 35.1 59% 43 29.85 1010.0
05 04:56 NE 21 10.00 Overcast and Breezy OVC070 51.1 34 52% 29.84 1009.5
05 03:56 NE 22 G 29 10.00 Overcast and Breezy OVC065 51.1 33.1 50% 29.8 1008.0
05 02:56 NE 20 G 24 10.00 Mostly Cloudy BKN060 51.1 34 52% 29.77 1007.0
05 01:56 NE 20 G 25 10.00 Fair CLR 52 35.1 53% 29.75 1006.4
05 00:56 NE 26 G 39 10.00 Fair and Windy CLR 55 35.1 75.9 55 47% 29.75 1006.0
04 23:56 NE 28 G 32 10.00 Fair and Windy CLR 59 37 44% 29.72 1005.1
04 22:56 NE 22 10.00 Fair and Breezy CLR 62.1 37.9 41% 29.68 1003.7
04 21:56 NE 26 G 35 10.00 Fair and Windy CLR 63 43 48% 29.64 1002.5
04 20:56 NE 31 G 36 10.00 Mostly Cloudy and Windy BKN120 68 45 44% 29.61 1001.7
04 19:56 N 17 10.00 Mostly Cloudy BKN120 75.9 37.9 25% 77 29.58 1000.8
04 18:56 E 6 10.00 Partly Cloudy SCT110 75.9 46 82.9 75.9 35% 78 29.59 1001.3
04 17:56 E 9 10.00 Fair CLR 79 45 30% 79 29.59 1001.1
04 16:56 E 12 10.00 Fair CLR 81 42.1 25% 79 29.59 1001.0
04 15:56 E 13 10.00 Fair CLR 81 43 26% 80 29.6 1001.5
04 14:56 E 9 10.00 Fair CLR 82 39.9 22% 80 29.63 1002.3
04 13:56 E 10 10.00 Fair CLR 81 39.9 23% 79 29.65 1002.7
04 12:56 NE 12 10.00 Fair CLR 81 43 81 44.1 26% 80 29.66 1002.9
04 11:56 N 10 10.00 Fair CLR 77 46 33% 78 29.67 1003.3
04 10:56 N 10 10.00 Fair CLR 75 46 36% 77 29.67 1003.3
04 09:56 NW 8 10.00 Fair CLR 66.9 44.1 44% 29.67 1003.7
04 08:56 NW 12 G 16 10.00 Fair CLR 60.1 44.1 56% 29.67 1003.6
04 07:56 W 5 10.00 Fair CLR 48.9 43 80% 48 29.65 1003.3
04 06:56 W 6 10.00 Fair CLR 44.1 39.9 55.9 43 85% 41 29.64 1002.7
04 05:56 SW 6 10.00 Fair CLR 44.1 39.9 85% 41 29.64 1002.6
04 04:56 NW 7 10.00 Fair CLR 48 41 77% 45 29.66 1003.2
04 03:56 W 3 10.00 Fair CLR 46.9 41 80% 29.65 1003.1
04 02:56 N 5 10.00 Fair CLR 50 42.1 74% 49 29.66 1003.3
04 00:56 Calm 10.00 Fair CLR 55.9 42.1 81 55 60% 29.69 1004.3
03 23:56 NE 12 10.00 Fair CLR 59 41 51% 29.71 1004.7
03 22:56 NE 15 10.00 Fair CLR 64 41 43% 29.73 1005.4
03 21:56 NE 15 10.00 Fair CLR 64.9 42.1 43% 29.73 1005.6
03 20:56 N 12 10.00 A Few Clouds FEW100 71.1 41 34% 29.72 1005.5
03 19:56 SW 5 10.00 Fair CLR 75 37 25% 77 29.7 1004.7
03 18:56 S 15 10.00 Fair CLR 82 35.1 84 80.1 18% 80 29.71 1004.9
03 17:56 SW 16 10.00 Fair CLR 82.9 30 15% 80 29.72 1005.2
03 16:56 SW 17 G 25 10.00 Fair CLR 84 33.1 16% 81 29.74 1006.1
03 15:56 S 5 10.00 Fair CLR 84 33.1 16% 81 29.78 1007.5
03 14:56 SW 13 10.00 Fair CLR 82.9 33.1 17% 80 29.82 1008.8
03 12:56 W 12 10.00 Fair CLR 81 32 82 50 17% 79 29.89 1011.1
03 11:56 SW 7 10.00 Fair CLR 78.1 39.9 26% 78 29.92 1012.2
03 10:56 W 9 10.00 Fair CLR 73.9 39 28% 29.93 1013.0
03 09:56 W 17 10.00 Fair CLR 69.1 37.9 32% 29.94 1013.2
03 08:56 SW 9 10.00 Fair CLR 60.1 41 50% 29.94 1013.5
03 07:56 SW 14 10.00 Fair CLR 54 39.9 59% 29.94 1013.5
03 06:56 SW 16 G 21 10.00 Fair CLR 48.9 39 50 45 69% 44 29.94 1013.2
03 05:56 SW 8 10.00 Fair CLR 48.9 39 69% 46 29.95 1013.6
03 04:56 SW 6 10.00 Fair CLR 46.9 37.9 71% 45 29.97 1014.5
03 03:56 S 7 10.00 Fair CLR 46.9 39 74% 44 29.97 1014.6
03 02:56 SW 8 10.00 Fair CLR 46 37 71% 42 29.99 1015.3
Date Time (cdt) Wind (mph) Vis. (mi.) Weather Sky Cond. Air Dwpt Max. Min. Relative Humidity Wind Chill (°F) Heat Index (°F) altimeter (in) sea level (mb) 1 hr 3 hr 6 hr
6 hour
Temperature (ºF) Pressure Precipitation (in)